sensor_id;sensor_type;location;lat;lon;timestamp;P1;durP1;ratioP1;P2;durP2;ratioP2
4422;SDS011;2224;49.814;8.650;2022-09-01T00:02:02;6.33;;;5.40;;
4422;SDS011;2224;49.814;8.650;2022-09-01T00:04:32;6.20;;;5.00;;
4422;SDS011;2224;49.814;8.650;2022-09-01T00:07:02;5.63;;;5.13;;
4422;SDS011;2224;49.814;8.650;2022-09-01T00:09:29;4.83;;;4.30;;
4422;SDS011;2224;49.814;8.650;2022-09-01T00:11:54;5.60;;;5.20;;
4422;SDS011;2224;49.814;8.650;2022-09-01T00:14:24;9.77;;;5.20;;
4422;SDS011;2224;49.814;8.650;2022-09-01T00:16:51;4.33;;;4.03;;
4422;SDS011;2224;49.814;8.650;2022-09-01T00:19:18;5.33;;;4.83;;
4422;SDS011;2224;49.814;8.650;2022-09-01T00:21:43;5.70;;;5.10;;
4422;SDS011;2224;49.814;8.650;2022-09-01T00:24:11;5.10;;;4.70;;
4422;SDS011;2224;49.814;8.650;2022-09-01T00:26:37;5.63;;;5.17;;
4422;SDS011;2224;49.814;8.650;2022-09-01T00:29:03;5.40;;;4.90;;
4422;SDS011;2224;49.814;8.650;2022-09-01T00:31:28;5.40;;;4.43;;
4422;SDS011;2224;49.814;8.650;2022-09-01T00:33:54;5.40;;;4.90;;
4422;SDS011;2224;49.814;8.650;2022-09-01T00:36:19;4.73;;;4.43;;
4422;SDS011;2224;49.814;8.650;2022-09-01T00:38:45;5.90;;;4.80;;
4422;SDS011;2224;49.814;8.650;2022-09-01T00:41:11;5.43;;;5.03;;
4422;SDS011;2224;49.814;8.650;2022-09-01T00:46:18;5.17;;;4.70;;
4422;SDS011;2224;49.814;8.650;2022-09-01T00:48:45;5.70;;;4.97;;
4422;SDS011;2224;49.814;8.650;2022-09-01T00:51:12;4.37;;;4.07;;
4422;SDS011;2224;49.814;8.650;2022-09-01T00:53:39;5.00;;;4.60;;
4422;SDS011;2224;49.814;8.650;2022-09-01T00:56:05;4.43;;;4.13;;
4422;SDS011;2224;49.814;8.650;2022-09-01T00:58:31;4.47;;;4.07;;
4422;SDS011;2224;49.814;8.650;2022-09-01T01:00:59;3.97;;;3.57;;
4422;SDS011;2224;49.814;8.650;2022-09-01T01:03:24;7.03;;;5.00;;
4422;SDS011;2224;49.814;8.650;2022-09-01T01:05:50;4.70;;;3.93;;
4422;SDS011;2224;49.814;8.650;2022-09-01T01:08:19;4.43;;;4.10;;
4422;SDS011;2224;49.814;8.650;2022-09-01T01:10:51;5.50;;;4.50;;
4422;SDS011;2224;49.814;8.650;2022-09-01T01:13:16;4.73;;;3.70;;
4422;SDS011;2224;49.814;8.650;2022-09-01T01:15:42;4.20;;;3.80;;
4422;SDS011;2224;49.814;8.650;2022-09-01T01:18:14;4.00;;;3.70;;
4422;SDS011;2224;49.814;8.650;2022-09-01T01:20:40;4.27;;;3.97;;
4422;SDS011;2224;49.814;8.650;2022-09-01T01:23:33;4.23;;;3.90;;
4422;SDS011;2224;49.814;8.650;2022-09-01T01:26:04;5.30;;;4.83;;
4422;SDS011;2224;49.814;8.650;2022-09-01T01:28:32;4.20;;;3.90;;
4422;SDS011;2224;49.814;8.650;2022-09-01T01:31:07;4.53;;;4.07;;
4422;SDS011;2224;49.814;8.650;2022-09-01T01:33:39;5.10;;;4.70;;
4422;SDS011;2224;49.814;8.650;2022-09-01T01:36:10;4.40;;;4.00;;
4422;SDS011;2224;49.814;8.650;2022-09-01T01:38:46;4.70;;;4.30;;
4422;SDS011;2224;49.814;8.650;2022-09-01T01:41:13;5.20;;;4.80;;
4422;SDS011;2224;49.814;8.650;2022-09-01T01:43:40;7.20;;;5.03;;
4422;SDS011;2224;49.814;8.650;2022-09-01T01:46:06;5.07;;;4.60;;
4422;SDS011;2224;49.814;8.650;2022-09-01T01:48:33;4.20;;;3.90;;
4422;SDS011;2224;49.814;8.650;2022-09-01T01:51:01;4.40;;;4.00;;
4422;SDS011;2224;49.814;8.650;2022-09-01T01:53:28;4.77;;;4.37;;
4422;SDS011;2224;49.814;8.650;2022-09-01T01:55:54;5.13;;;4.73;;
4422;SDS011;2224;49.814;8.650;2022-09-01T01:58:22;4.80;;;4.40;;
4422;SDS011;2224;49.814;8.650;2022-09-01T02:00:49;4.60;;;4.20;;
4422;SDS011;2224;49.814;8.650;2022-09-01T02:03:16;4.80;;;4.40;;
4422;SDS011;2224;49.814;8.650;2022-09-01T02:05:44;6.00;;;4.17;;
4422;SDS011;2224;49.814;8.650;2022-09-01T02:08:11;4.70;;;4.30;;
4422;SDS011;2224;49.814;8.650;2022-09-01T02:10:44;5.53;;;4.37;;
4422;SDS011;2224;49.814;8.650;2022-09-01T02:13:11;4.87;;;4.50;;
4422;SDS011;2224;49.814;8.650;2022-09-01T02:15:41;3.90;;;3.60;;
4422;SDS011;2224;49.814;8.650;2022-09-01T02:18:18;4.63;;;4.33;;
4422;SDS011;2224;49.814;8.650;2022-09-01T02:20:48;6.20;;;4.83;;
4422;SDS011;2224;49.814;8.650;2022-09-01T02:23:15;5.00;;;4.47;;
4422;SDS011;2224;49.814;8.650;2022-09-01T02:25:47;4.60;;;4.20;;
4422;SDS011;2224;49.814;8.650;2022-09-01T02:28:13;4.97;;;4.57;;
4422;SDS011;2224;49.814;8.650;2022-09-01T02:30:43;4.77;;;4.27;;
4422;SDS011;2224;49.814;8.650;2022-09-01T02:33:10;5.10;;;4.70;;
4422;SDS011;2224;49.814;8.650;2022-09-01T02:35:46;4.30;;;4.00;;
4422;SDS011;2224;49.814;8.650;2022-09-01T02:38:13;4.03;;;3.73;;
4422;SDS011;2224;49.814;8.650;2022-09-01T02:40:39;4.33;;;3.93;;
4422;SDS011;2224;49.814;8.650;2022-09-01T02:43:09;4.27;;;3.90;;
4422;SDS011;2224;49.814;8.650;2022-09-01T02:45:36;4.40;;;3.90;;
4422;SDS011;2224;49.814;8.650;2022-09-01T02:48:02;5.90;;;4.40;;
4422;SDS011;2224;49.814;8.650;2022-09-01T02:50:34;5.13;;;4.63;;
4422;SDS011;2224;49.814;8.650;2022-09-01T02:53:00;3.90;;;3.63;;
4422;SDS011;2224;49.814;8.650;2022-09-01T02:55:28;5.67;;;4.60;;
4422;SDS011;2224;49.814;8.650;2022-09-01T02:57:53;4.50;;;4.10;;
4422;SDS011;2224;49.814;8.650;2022-09-01T03:00:21;4.90;;;4.40;;
4422;SDS011;2224;49.814;8.650;2022-09-01T03:02:53;4.80;;;4.40;;
4422;SDS011;2224;49.814;8.650;2022-09-01T03:05:21;4.90;;;4.50;;
4422;SDS011;2224;49.814;8.650;2022-09-01T03:08:00;5.03;;;4.57;;
4422;SDS011;2224;49.814;8.650;2022-09-01T03:10:29;6.67;;;4.60;;
4422;SDS011;2224;49.814;8.650;2022-09-01T03:12:59;5.40;;;4.57;;
4422;SDS011;2224;49.814;8.650;2022-09-01T03:15:30;5.13;;;4.67;;
4422;SDS011;2224;49.814;8.650;2022-09-01T03:17:58;4.20;;;3.80;;
4422;SDS011;2224;49.814;8.650;2022-09-01T03:20:25;5.20;;;4.80;;
4422;SDS011;2224;49.814;8.650;2022-09-01T03:22:52;4.87;;;4.47;;
4422;SDS011;2224;49.814;8.650;2022-09-01T03:25:19;4.63;;;4.23;;
4422;SDS011;2224;49.814;8.650;2022-09-01T03:27:44;4.87;;;4.47;;
4422;SDS011;2224;49.814;8.650;2022-09-01T03:30:11;5.00;;;4.60;;
4422;SDS011;2224;49.814;8.650;2022-09-01T03:32:37;4.70;;;4.40;;
4422;SDS011;2224;49.814;8.650;2022-09-01T03:35:02;4.53;;;4.23;;
4422;SDS011;2224;49.814;8.650;2022-09-01T03:37:28;5.37;;;4.70;;
4422;SDS011;2224;49.814;8.650;2022-09-01T03:39:54;5.10;;;4.33;;
4422;SDS011;2224;49.814;8.650;2022-09-01T03:42:19;5.03;;;4.63;;
4422;SDS011;2224;49.814;8.650;2022-09-01T03:44:50;4.53;;;4.13;;
4422;SDS011;2224;49.814;8.650;2022-09-01T03:47:16;5.00;;;4.60;;
4422;SDS011;2224;49.814;8.650;2022-09-01T03:49:42;5.10;;;4.63;;
4422;SDS011;2224;49.814;8.650;2022-09-01T03:52:08;4.57;;;4.17;;
4422;SDS011;2224;49.814;8.650;2022-09-01T03:54:34;5.80;;;4.77;;
4422;SDS011;2224;49.814;8.650;2022-09-01T03:57:00;4.83;;;4.43;;
4422;SDS011;2224;49.814;8.650;2022-09-01T03:59:25;4.60;;;4.20;;
4422;SDS011;2224;49.814;8.650;2022-09-01T04:01:52;5.63;;;5.17;;
4422;SDS011;2224;49.814;8.650;2022-09-01T04:04:17;4.63;;;4.30;;
4422;SDS011;2224;49.814;8.650;2022-09-01T04:06:43;4.77;;;4.47;;
4422;SDS011;2224;49.814;8.650;2022-09-01T04:09:10;4.10;;;3.80;;
4422;SDS011;2224;49.814;8.650;2022-09-01T04:11:36;5.40;;;4.70;;
4422;SDS011;2224;49.814;8.650;2022-09-01T04:14:03;5.43;;;3.97;;
4422;SDS011;2224;49.814;8.650;2022-09-01T04:16:30;4.50;;;4.00;;
4422;SDS011;2224;49.814;8.650;2022-09-01T04:19:17;5.77;;;4.50;;
4422;SDS011;2224;49.814;8.650;2022-09-01T04:21:47;5.27;;;4.87;;
4422;SDS011;2224;49.814;8.650;2022-09-01T04:24:17;5.07;;;4.70;;
4422;SDS011;2224;49.814;8.650;2022-09-01T04:26:43;5.53;;;4.70;;
4422;SDS011;2224;49.814;8.650;2022-09-01T04:29:11;5.40;;;4.90;;
4422;SDS011;2224;49.814;8.650;2022-09-01T04:31:37;9.03;;;4.43;;
4422;SDS011;2224;49.814;8.650;2022-09-01T04:34:04;5.50;;;4.60;;
4422;SDS011;2224;49.814;8.650;2022-09-01T04:36:38;4.63;;;4.23;;
4422;SDS011;2224;49.814;8.650;2022-09-01T04:39:05;4.70;;;4.30;;
4422;SDS011;2224;49.814;8.650;2022-09-01T04:41:33;5.00;;;4.53;;
4422;SDS011;2224;49.814;8.650;2022-09-01T04:44:00;4.97;;;4.57;;
4422;SDS011;2224;49.814;8.650;2022-09-01T04:46:29;5.20;;;4.80;;
4422;SDS011;2224;49.814;8.650;2022-09-01T04:48:59;5.10;;;4.60;;
4422;SDS011;2224;49.814;8.650;2022-09-01T04:51:27;5.90;;;4.83;;
4422;SDS011;2224;49.814;8.650;2022-09-01T04:53:54;4.57;;;4.17;;
4422;SDS011;2224;49.814;8.650;2022-09-01T04:56:21;4.87;;;4.47;;
4422;SDS011;2224;49.814;8.650;2022-09-01T04:58:49;5.20;;;4.70;;
4422;SDS011;2224;49.814;8.650;2022-09-01T05:01:18;5.80;;;5.10;;
4422;SDS011;2224;49.814;8.650;2022-09-01T05:03:45;5.27;;;4.87;;
4422;SDS011;2224;49.814;8.650;2022-09-01T05:06:15;5.27;;;4.77;;
4422;SDS011;2224;49.814;8.650;2022-09-01T05:08:42;5.10;;;4.60;;
4422;SDS011;2224;49.814;8.650;2022-09-01T05:11:09;5.03;;;4.53;;
4422;SDS011;2224;49.814;8.650;2022-09-01T05:13:35;5.33;;;4.93;;
4422;SDS011;2224;49.814;8.650;2022-09-01T05:16:08;5.23;;;4.80;;
4422;SDS011;2224;49.814;8.650;2022-09-01T05:18:40;4.77;;;4.37;;
4422;SDS011;2224;49.814;8.650;2022-09-01T05:21:09;5.17;;;4.77;;
4422;SDS011;2224;49.814;8.650;2022-09-01T05:23:35;4.57;;;4.17;;
4422;SDS011;2224;49.814;8.650;2022-09-01T05:26:04;6.60;;;5.47;;
4422;SDS011;2224;49.814;8.650;2022-09-01T05:28:38;5.50;;;5.10;;
4422;SDS011;2224;49.814;8.650;2022-09-01T05:31:05;6.07;;;5.60;;
4422;SDS011;2224;49.814;8.650;2022-09-01T05:33:31;5.00;;;4.60;;
4422;SDS011;2224;49.814;8.650;2022-09-01T05:35:58;7.90;;;4.60;;
4422;SDS011;2224;49.814;8.650;2022-09-01T05:38:25;5.60;;;5.17;;
4422;SDS011;2224;49.814;8.650;2022-09-01T05:40:59;4.80;;;4.40;;
4422;SDS011;2224;49.814;8.650;2022-09-01T05:43:31;5.67;;;5.17;;
4422;SDS011;2224;49.814;8.650;2022-09-01T05:45:57;5.67;;;5.07;;
4422;SDS011;2224;49.814;8.650;2022-09-01T05:48:24;5.30;;;4.73;;
4422;SDS011;2224;49.814;8.650;2022-09-01T05:50:50;4.40;;;4.10;;
4422;SDS011;2224;49.814;8.650;2022-09-01T05:53:17;5.80;;;5.20;;
4422;SDS011;2224;49.814;8.650;2022-09-01T05:55:43;5.00;;;4.60;;
4422;SDS011;2224;49.814;8.650;2022-09-01T05:58:11;5.40;;;4.77;;
4422;SDS011;2224;49.814;8.650;2022-09-01T06:00:42;5.00;;;4.60;;
4422;SDS011;2224;49.814;8.650;2022-09-01T06:03:11;6.00;;;4.80;;
4422;SDS011;2224;49.814;8.650;2022-09-01T06:05:38;5.20;;;4.80;;
4422;SDS011;2224;49.814;8.650;2022-09-01T06:08:04;5.40;;;5.00;;
4422;SDS011;2224;49.814;8.650;2022-09-01T06:10:31;4.80;;;4.40;;
4422;SDS011;2224;49.814;8.650;2022-09-01T06:13:01;5.27;;;4.67;;
4422;SDS011;2224;49.814;8.650;2022-09-01T06:15:28;4.57;;;4.13;;
4422;SDS011;2224;49.814;8.650;2022-09-01T06:17:54;5.17;;;4.67;;
4422;SDS011;2224;49.814;8.650;2022-09-01T06:20:20;5.20;;;4.70;;
4422;SDS011;2224;49.814;8.650;2022-09-01T06:22:46;8.87;;;4.60;;
4422;SDS011;2224;49.814;8.650;2022-09-01T06:25:12;4.83;;;4.43;;
4422;SDS011;2224;49.814;8.650;2022-09-01T06:27:41;4.37;;;4.07;;
4422;SDS011;2224;49.814;8.650;2022-09-01T06:30:09;4.50;;;4.13;;
4422;SDS011;2224;49.814;8.650;2022-09-01T06:32:44;5.20;;;4.80;;
4422;SDS011;2224;49.814;8.650;2022-09-01T06:35:11;4.93;;;4.43;;
4422;SDS011;2224;49.814;8.650;2022-09-01T06:37:42;4.80;;;4.07;;
4422;SDS011;2224;49.814;8.650;2022-09-01T06:40:09;5.30;;;4.80;;
4422;SDS011;2224;49.814;8.650;2022-09-01T06:42:41;5.20;;;4.70;;
4422;SDS011;2224;49.814;8.650;2022-09-01T06:45:09;5.07;;;4.67;;
4422;SDS011;2224;49.814;8.650;2022-09-01T06:47:35;4.97;;;4.60;;
4422;SDS011;2224;49.814;8.650;2022-09-01T06:50:01;5.80;;;4.60;;
4422;SDS011;2224;49.814;8.650;2022-09-01T06:52:28;7.13;;;4.13;;
4422;SDS011;2224;49.814;8.650;2022-09-01T06:54:53;5.13;;;4.63;;
4422;SDS011;2224;49.814;8.650;2022-09-01T06:57:19;4.57;;;4.10;;
4422;SDS011;2224;49.814;8.650;2022-09-01T06:59:46;4.93;;;4.40;;
4422;SDS011;2224;49.814;8.650;2022-09-01T07:02:11;4.87;;;4.23;;
4422;SDS011;2224;49.814;8.650;2022-09-01T07:04:40;5.53;;;5.03;;
4422;SDS011;2224;49.814;8.650;2022-09-01T07:07:07;5.10;;;4.67;;
4422;SDS011;2224;49.814;8.650;2022-09-01T07:09:37;4.77;;;4.37;;
4422;SDS011;2224;49.814;8.650;2022-09-01T07:12:04;7.13;;;4.53;;
4422;SDS011;2224;49.814;8.650;2022-09-01T07:14:29;5.20;;;4.50;;
4422;SDS011;2224;49.814;8.650;2022-09-01T07:16:55;4.50;;;4.10;;
4422;SDS011;2224;49.814;8.650;2022-09-01T07:19:22;5.67;;;4.00;;
4422;SDS011;2224;49.814;8.650;2022-09-01T07:21:50;3.90;;;3.60;;
4422;SDS011;2224;49.814;8.650;2022-09-01T07:24:16;4.70;;;4.20;;
4422;SDS011;2224;49.814;8.650;2022-09-01T07:26:44;5.40;;;4.50;;
4422;SDS011;2224;49.814;8.650;2022-09-01T07:29:13;4.90;;;4.50;;
4422;SDS011;2224;49.814;8.650;2022-09-01T07:31:39;4.57;;;4.27;;
4422;SDS011;2224;49.814;8.650;2022-09-01T07:34:08;4.77;;;4.37;;
4422;SDS011;2224;49.814;8.650;2022-09-01T07:36:37;4.43;;;4.13;;
4422;SDS011;2224;49.814;8.650;2022-09-01T07:39:03;4.80;;;4.40;;
4422;SDS011;2224;49.814;8.650;2022-09-01T07:41:29;4.47;;;4.00;;
4422;SDS011;2224;49.814;8.650;2022-09-01T07:43:56;5.40;;;4.30;;
4422;SDS011;2224;49.814;8.650;2022-09-01T07:46:23;5.83;;;4.40;;
4422;SDS011;2224;49.814;8.650;2022-09-01T07:48:51;7.50;;;4.30;;
4422;SDS011;2224;49.814;8.650;2022-09-01T07:51:18;9.37;;;5.10;;
4422;SDS011;2224;49.814;8.650;2022-09-01T07:53:45;4.70;;;4.30;;
4422;SDS011;2224;49.814;8.650;2022-09-01T07:56:15;4.87;;;4.30;;
4422;SDS011;2224;49.814;8.650;2022-09-01T07:58:43;4.47;;;4.07;;
4422;SDS011;2224;49.814;8.650;2022-09-01T08:01:26;6.60;;;4.10;;
4422;SDS011;2224;49.814;8.650;2022-09-01T08:03:53;5.37;;;4.90;;
4422;SDS011;2224;49.814;8.650;2022-09-01T08:06:21;5.20;;;4.37;;
4422;SDS011;2224;49.814;8.650;2022-09-01T08:08:49;3.97;;;3.67;;
4422;SDS011;2224;49.814;8.650;2022-09-01T08:11:17;5.60;;;4.20;;
4422;SDS011;2224;49.814;8.650;2022-09-01T08:13:49;4.17;;;3.87;;
4422;SDS011;2224;49.814;8.650;2022-09-01T08:16:15;4.23;;;3.93;;
4422;SDS011;2224;49.814;8.650;2022-09-01T08:18:41;4.53;;;4.13;;
4422;SDS011;2224;49.814;8.650;2022-09-01T08:21:09;4.33;;;3.97;;
4422;SDS011;2224;49.814;8.650;2022-09-01T08:23:35;4.40;;;4.10;;
4422;SDS011;2224;49.814;8.650;2022-09-01T08:26:08;5.97;;;4.73;;
4422;SDS011;2224;49.814;8.650;2022-09-01T08:28:36;9.13;;;4.37;;
4422;SDS011;2224;49.814;8.650;2022-09-01T08:31:08;7.90;;;4.43;;
4422;SDS011;2224;49.814;8.650;2022-09-01T08:33:34;5.60;;;5.10;;
4422;SDS011;2224;49.814;8.650;2022-09-01T08:36:05;4.63;;;4.23;;
4422;SDS011;2224;49.814;8.650;2022-09-01T08:38:32;5.20;;;4.10;;
4422;SDS011;2224;49.814;8.650;2022-09-01T08:40:58;6.23;;;4.53;;
4422;SDS011;2224;49.814;8.650;2022-09-01T08:46:16;7.33;;;4.77;;
4422;SDS011;2224;49.814;8.650;2022-09-01T08:48:47;5.00;;;4.57;;
4422;SDS011;2224;49.814;8.650;2022-09-01T08:51:26;7.97;;;4.90;;
4422;SDS011;2224;49.814;8.650;2022-09-01T08:54:08;4.90;;;4.50;;
4422;SDS011;2224;49.814;8.650;2022-09-01T08:56:37;5.20;;;4.70;;
4422;SDS011;2224;49.814;8.650;2022-09-01T08:59:03;5.50;;;4.47;;
4422;SDS011;2224;49.814;8.650;2022-09-01T09:01:47;5.33;;;4.40;;
4422;SDS011;2224;49.814;8.650;2022-09-01T09:07:20;4.53;;;4.13;;
4422;SDS011;2224;49.814;8.650;2022-09-01T09:17:58;12.00;;;5.50;;
4422;SDS011;2224;49.814;8.650;2022-09-01T09:20:29;4.50;;;4.10;;
4422;SDS011;2224;49.814;8.650;2022-09-01T09:22:54;4.90;;;4.60;;
4422;SDS011;2224;49.814;8.650;2022-09-01T09:25:20;5.10;;;4.70;;
4422;SDS011;2224;49.814;8.650;2022-09-01T09:27:48;5.47;;;4.40;;
4422;SDS011;2224;49.814;8.650;2022-09-01T09:30:19;5.93;;;5.33;;
4422;SDS011;2224;49.814;8.650;2022-09-01T09:32:49;4.70;;;4.30;;
4422;SDS011;2224;49.814;8.650;2022-09-01T09:35:34;5.63;;;4.63;;
4422;SDS011;2224;49.814;8.650;2022-09-01T09:43:22;4.30;;;3.90;;
4422;SDS011;2224;49.814;8.650;2022-09-01T09:45:48;4.17;;;3.87;;
4422;SDS011;2224;49.814;8.650;2022-09-01T09:48:28;4.90;;;4.50;;
4422;SDS011;2224;49.814;8.650;2022-09-01T09:50:54;5.07;;;4.50;;
4422;SDS011;2224;49.814;8.650;2022-09-01T09:58:48;5.10;;;4.60;;
4422;SDS011;2224;49.814;8.650;2022-09-01T10:03:54;4.77;;;4.37;;
4422;SDS011;2224;49.814;8.650;2022-09-01T10:06:35;4.57;;;4.17;;
4422;SDS011;2224;49.814;8.650;2022-09-01T10:09:04;5.00;;;4.60;;
4422;SDS011;2224;49.814;8.650;2022-09-01T10:11:41;5.23;;;4.57;;
4422;SDS011;2224;49.814;8.650;2022-09-01T10:16:43;4.27;;;3.90;;
4422;SDS011;2224;49.814;8.650;2022-09-01T10:19:12;5.00;;;4.60;;
4422;SDS011;2224;49.814;8.650;2022-09-01T10:21:39;5.00;;;4.57;;
4422;SDS011;2224;49.814;8.650;2022-09-01T10:24:17;4.47;;;4.03;;
4422;SDS011;2224;49.814;8.650;2022-09-01T10:27:05;4.70;;;4.30;;
4422;SDS011;2224;49.814;8.650;2022-09-01T10:29:36;5.20;;;4.70;;
4422;SDS011;2224;49.814;8.650;2022-09-01T10:32:10;4.60;;;4.30;;
4422;SDS011;2224;49.814;8.650;2022-09-01T10:34:37;4.70;;;4.30;;
4422;SDS011;2224;49.814;8.650;2022-09-01T10:37:05;4.67;;;4.37;;
4422;SDS011;2224;49.814;8.650;2022-09-01T10:39:30;4.70;;;4.30;;
4422;SDS011;2224;49.814;8.650;2022-09-01T10:41:56;4.90;;;4.30;;
4422;SDS011;2224;49.814;8.650;2022-09-01T10:44:34;4.03;;;3.73;;
4422;SDS011;2224;49.814;8.650;2022-09-01T10:51:58;4.17;;;3.83;;
4422;SDS011;2224;49.814;8.650;2022-09-01T10:57:29;6.83;;;4.13;;
4422;SDS011;2224;49.814;8.650;2022-09-01T10:59:50;4.20;;;3.80;;
4422;SDS011;2224;49.814;8.650;2022-09-01T11:02:17;5.00;;;3.30;;
4422;SDS011;2224;49.814;8.650;2022-09-01T11:09:44;4.07;;;3.77;;
4422;SDS011;2224;49.814;8.650;2022-09-01T11:14:54;5.00;;;3.90;;
4422;SDS011;2224;49.814;8.650;2022-09-01T11:17:25;3.53;;;3.20;;
4422;SDS011;2224;49.814;8.650;2022-09-01T11:22:31;6.00;;;3.20;;
4422;SDS011;2224;49.814;8.650;2022-09-01T11:30:22;4.40;;;3.67;;
4422;SDS011;2224;49.814;8.650;2022-09-01T11:32:55;4.53;;;3.63;;
4422;SDS011;2224;49.814;8.650;2022-09-01T11:35:23;3.83;;;3.53;;
4422;SDS011;2224;49.814;8.650;2022-09-01T11:37:50;5.80;;;3.00;;
4422;SDS011;2224;49.814;8.650;2022-09-01T11:40:19;5.27;;;3.93;;
4422;SDS011;2224;49.814;8.650;2022-09-01T11:42:47;4.43;;;3.87;;
4422;SDS011;2224;49.814;8.650;2022-09-01T11:47:45;3.30;;;3.10;;
4422;SDS011;2224;49.814;8.650;2022-09-01T11:50:19;10.50;;;4.60;;
4422;SDS011;2224;49.814;8.650;2022-09-01T11:52:53;4.33;;;3.43;;
4422;SDS011;2224;49.814;8.650;2022-09-01T11:55:27;3.93;;;3.00;;
4422;SDS011;2224;49.814;8.650;2022-09-01T11:58:00;3.40;;;3.10;;
4422;SDS011;2224;49.814;8.650;2022-09-01T12:00:28;4.20;;;3.83;;
4422;SDS011;2224;49.814;8.650;2022-09-01T12:02:55;4.10;;;2.90;;
4422;SDS011;2224;49.814;8.650;2022-09-01T12:05:28;3.87;;;3.23;;
4422;SDS011;2224;49.814;8.650;2022-09-01T12:07:56;3.77;;;3.43;;
4422;SDS011;2224;49.814;8.650;2022-09-01T12:10:32;3.27;;;3.00;;
4422;SDS011;2224;49.814;8.650;2022-09-01T12:13:10;4.77;;;3.00;;
4422;SDS011;2224;49.814;8.650;2022-09-01T12:15:53;3.87;;;3.33;;
4422;SDS011;2224;49.814;8.650;2022-09-01T12:18:21;3.47;;;3.17;;
4422;SDS011;2224;49.814;8.650;2022-09-01T12:20:50;3.60;;;3.00;;
4422;SDS011;2224;49.814;8.650;2022-09-01T12:23:29;3.13;;;2.93;;
4422;SDS011;2224;49.814;8.650;2022-09-01T12:25:58;3.77;;;3.40;;
4422;SDS011;2224;49.814;8.650;2022-09-01T12:28:26;3.23;;;3.03;;
4422;SDS011;2224;49.814;8.650;2022-09-01T12:30:56;3.30;;;3.10;;
4422;SDS011;2224;49.814;8.650;2022-09-01T12:33:23;3.50;;;3.20;;
4422;SDS011;2224;49.814;8.650;2022-09-01T12:35:50;3.37;;;2.70;;
4422;SDS011;2224;49.814;8.650;2022-09-01T12:40:44;3.67;;;2.80;;
4422;SDS011;2224;49.814;8.650;2022-09-01T12:43:11;3.33;;;3.03;;
4422;SDS011;2224;49.814;8.650;2022-09-01T12:45:58;3.47;;;3.17;;
4422;SDS011;2224;49.814;8.650;2022-09-01T12:48:35;3.57;;;3.27;;
4422;SDS011;2224;49.814;8.650;2022-09-01T12:51:13;3.67;;;3.20;;
4422;SDS011;2224;49.814;8.650;2022-09-01T12:53:53;3.63;;;3.33;;
4422;SDS011;2224;49.814;8.650;2022-09-01T12:56:22;3.60;;;3.30;;
4422;SDS011;2224;49.814;8.650;2022-09-01T12:59:32;3.50;;;3.30;;
4422;SDS011;2224;49.814;8.650;2022-09-01T13:01:51;3.77;;;2.90;;
4422;SDS011;2224;49.814;8.650;2022-09-01T13:06:44;3.50;;;3.20;;
4422;SDS011;2224;49.814;8.650;2022-09-01T13:09:10;3.33;;;3.03;;
4422;SDS011;2224;49.814;8.650;2022-09-01T13:11:35;3.43;;;2.63;;
4422;SDS011;2224;49.814;8.650;2022-09-01T13:14:01;3.20;;;2.80;;
4422;SDS011;2224;49.814;8.650;2022-09-01T13:16:26;4.10;;;3.20;;
4422;SDS011;2224;49.814;8.650;2022-09-01T13:18:52;3.07;;;2.50;;
4422;SDS011;2224;49.814;8.650;2022-09-01T13:21:17;3.33;;;3.03;;
4422;SDS011;2224;49.814;8.650;2022-09-01T13:23:42;2.93;;;2.60;;
4422;SDS011;2224;49.814;8.650;2022-09-01T13:26:08;2.63;;;2.43;;
4422;SDS011;2224;49.814;8.650;2022-09-01T13:28:35;2.73;;;2.53;;
4422;SDS011;2224;49.814;8.650;2022-09-01T13:31:01;5.23;;;3.00;;
4422;SDS011;2224;49.814;8.650;2022-09-01T13:33:31;3.40;;;2.70;;
4422;SDS011;2224;49.814;8.650;2022-09-01T13:35:58;3.00;;;2.70;;
4422;SDS011;2224;49.814;8.650;2022-09-01T13:38:23;2.50;;;2.30;;
4422;SDS011;2224;49.814;8.650;2022-09-01T13:40:49;2.80;;;2.50;;
4422;SDS011;2224;49.814;8.650;2022-09-01T13:43:16;5.50;;;3.00;;
4422;SDS011;2224;49.814;8.650;2022-09-01T13:45:46;5.67;;;2.77;;
4422;SDS011;2224;49.814;8.650;2022-09-01T13:48:12;2.97;;;2.77;;
4422;SDS011;2224;49.814;8.650;2022-09-01T13:50:38;2.87;;;2.37;;
4422;SDS011;2224;49.814;8.650;2022-09-01T13:53:04;2.93;;;2.60;;
4422;SDS011;2224;49.814;8.650;2022-09-01T13:55:31;3.40;;;2.70;;
4422;SDS011;2224;49.814;8.650;2022-09-01T13:58:01;2.37;;;2.17;;
4422;SDS011;2224;49.814;8.650;2022-09-01T14:00:27;2.50;;;2.30;;
4422;SDS011;2224;49.814;8.650;2022-09-01T14:02:56;3.53;;;2.93;;
4422;SDS011;2224;49.814;8.650;2022-09-01T14:05:34;3.40;;;2.33;;
4422;SDS011;2224;49.814;8.650;2022-09-01T14:08:01;2.50;;;2.30;;
4422;SDS011;2224;49.814;8.650;2022-09-01T14:10:28;5.23;;;2.60;;
4422;SDS011;2224;49.814;8.650;2022-09-01T14:12:55;3.27;;;3.00;;
4422;SDS011;2224;49.814;8.650;2022-09-01T14:15:21;5.13;;;3.10;;
4422;SDS011;2224;49.814;8.650;2022-09-01T14:17:47;3.10;;;2.90;;
4422;SDS011;2224;49.814;8.650;2022-09-01T14:20:17;3.17;;;2.97;;
4422;SDS011;2224;49.814;8.650;2022-09-01T14:22:44;2.80;;;2.60;;
4422;SDS011;2224;49.814;8.650;2022-09-01T14:25:10;3.10;;;2.80;;
4422;SDS011;2224;49.814;8.650;2022-09-01T14:27:36;5.03;;;2.60;;
4422;SDS011;2224;49.814;8.650;2022-09-01T14:30:06;3.37;;;3.07;;
4422;SDS011;2224;49.814;8.650;2022-09-01T14:32:33;3.20;;;2.90;;
4422;SDS011;2224;49.814;8.650;2022-09-01T14:34:58;2.97;;;2.70;;
4422;SDS011;2224;49.814;8.650;2022-09-01T14:37:24;2.77;;;2.57;;
4422;SDS011;2224;49.814;8.650;2022-09-01T14:39:50;3.43;;;3.13;;
4422;SDS011;2224;49.814;8.650;2022-09-01T14:42:19;3.17;;;2.87;;
4422;SDS011;2224;49.814;8.650;2022-09-01T14:44:45;3.27;;;3.03;;
4422;SDS011;2224;49.814;8.650;2022-09-01T14:47:11;3.37;;;3.03;;
4422;SDS011;2224;49.814;8.650;2022-09-01T14:49:37;3.33;;;3.03;;
4422;SDS011;2224;49.814;8.650;2022-09-01T14:52:04;3.20;;;3.00;;
4422;SDS011;2224;49.814;8.650;2022-09-01T14:54:32;3.70;;;3.30;;
4422;SDS011;2224;49.814;8.650;2022-09-01T14:56:59;3.60;;;2.80;;
4422;SDS011;2224;49.814;8.650;2022-09-01T14:59:24;3.07;;;2.70;;
4422;SDS011;2224;49.814;8.650;2022-09-01T15:01:50;3.27;;;2.93;;
4422;SDS011;2224;49.814;8.650;2022-09-01T15:04:16;3.27;;;3.07;;
4422;SDS011;2224;49.814;8.650;2022-09-01T15:06:41;3.30;;;3.00;;
4422;SDS011;2224;49.814;8.650;2022-09-01T15:09:07;4.60;;;3.20;;
4422;SDS011;2224;49.814;8.650;2022-09-01T15:11:32;3.30;;;3.10;;
4422;SDS011;2224;49.814;8.650;2022-09-01T15:13:58;3.87;;;3.53;;
4422;SDS011;2224;49.814;8.650;2022-09-01T15:16:24;3.67;;;3.27;;
4422;SDS011;2224;49.814;8.650;2022-09-01T15:18:50;3.10;;;2.90;;
4422;SDS011;2224;49.814;8.650;2022-09-01T15:23:44;3.67;;;3.30;;
4422;SDS011;2224;49.814;8.650;2022-09-01T15:26:09;2.97;;;2.70;;
4422;SDS011;2224;49.814;8.650;2022-09-01T15:28:34;4.17;;;3.10;;
4422;SDS011;2224;49.814;8.650;2022-09-01T15:31:00;2.97;;;2.77;;
4422;SDS011;2224;49.814;8.650;2022-09-01T15:33:25;3.50;;;3.03;;
4422;SDS011;2224;49.814;8.650;2022-09-01T15:35:50;2.93;;;2.73;;
4422;SDS011;2224;49.814;8.650;2022-09-01T15:38:16;4.30;;;3.10;;
4422;SDS011;2224;49.814;8.650;2022-09-01T15:40:41;3.03;;;2.83;;
4422;SDS011;2224;49.814;8.650;2022-09-01T15:43:08;2.97;;;2.77;;
4422;SDS011;2224;49.814;8.650;2022-09-01T15:45:33;3.40;;;3.10;;
4422;SDS011;2224;49.814;8.650;2022-09-01T15:47:59;3.30;;;3.00;;
4422;SDS011;2224;49.814;8.650;2022-09-01T15:50:25;3.57;;;3.13;;
4422;SDS011;2224;49.814;8.650;2022-09-01T15:52:52;3.27;;;2.97;;
4422;SDS011;2224;49.814;8.650;2022-09-01T15:55:21;3.10;;;2.80;;
4422;SDS011;2224;49.814;8.650;2022-09-01T15:57:48;3.43;;;2.80;;
4422;SDS011;2224;49.814;8.650;2022-09-01T16:00:14;3.10;;;2.90;;
4422;SDS011;2224;49.814;8.650;2022-09-01T16:02:40;3.33;;;3.10;;
4422;SDS011;2224;49.814;8.650;2022-09-01T16:05:07;3.23;;;3.00;;
4422;SDS011;2224;49.814;8.650;2022-09-01T16:07:33;3.27;;;2.93;;
4422;SDS011;2224;49.814;8.650;2022-09-01T16:09:58;4.33;;;3.07;;
4422;SDS011;2224;49.814;8.650;2022-09-01T16:12:24;3.20;;;2.90;;
4422;SDS011;2224;49.814;8.650;2022-09-01T16:14:50;3.67;;;3.43;;
4422;SDS011;2224;49.814;8.650;2022-09-01T16:20:23;2.80;;;2.60;;
4422;SDS011;2224;49.814;8.650;2022-09-01T16:22:54;3.97;;;3.10;;
4422;SDS011;2224;49.814;8.650;2022-09-01T16:25:28;3.20;;;2.90;;
4422;SDS011;2224;49.814;8.650;2022-09-01T16:27:56;3.00;;;2.80;;
4422;SDS011;2224;49.814;8.650;2022-09-01T16:30:24;3.17;;;2.87;;
4422;SDS011;2224;49.814;8.650;2022-09-01T16:32:55;3.40;;;3.10;;